sensor_id;sensor_type;location;lat;lon;timestamp;temperature;humidity
69999;DHT22;57339;52.156;5.372;2024-02-16T00:00:21;12.20;99.90
69999;DHT22;57339;52.156;5.372;2024-02-16T00:02:48;12.20;99.90
69999;DHT22;57339;52.156;5.372;2024-02-16T00:05:15;12.20;99.90
69999;DHT22;57339;52.156;5.372;2024-02-16T00:07:42;12.10;99.90
69999;DHT22;57339;52.156;5.372;2024-02-16T00:10:10;12.10;99.90
69999;DHT22;57339;52.156;5.372;2024-02-16T00:12:38;12.10;99.90
69999;DHT22;57339;52.156;5.372;2024-02-16T00:15:05;12.00;99.90
69999;DHT22;57339;52.156;5.372;2024-02-16T00:17:32;12.00;99.90
69999;DHT22;57339;52.156;5.372;2024-02-16T00:20:00;12.00;99.90
69999;DHT22;57339;52.156;5.372;2024-02-16T00:22:27;12.00;99.90
69999;DHT22;57339;52.156;5.372;2024-02-16T00:24:54;12.00;99.90
69999;DHT22;57339;52.156;5.372;2024-02-16T00:27:21;11.90;99.90
69999;DHT22;57339;52.156;5.372;2024-02-16T00:29:48;12.00;99.90
69999;DHT22;57339;52.156;5.372;2024-02-16T00:32:16;11.90;99.90
69999;DHT22;57339;52.156;5.372;2024-02-16T00:34:43;11.90;99.90
69999;DHT22;57339;52.156;5.372;2024-02-16T00:37:10;11.90;99.90
69999;DHT22;57339;52.156;5.372;2024-02-16T00:39:38;11.90;99.90
69999;DHT22;57339;52.156;5.372;2024-02-16T00:42:06;11.90;99.90
69999;DHT22;57339;52.156;5.372;2024-02-16T00:44:33;11.90;99.90
69999;DHT22;57339;52.156;5.372;2024-02-16T00:47:00;11.90;99.90
69999;DHT22;57339;52.156;5.372;2024-02-16T00:49:27;11.80;99.90
69999;DHT22;57339;52.156;5.372;2024-02-16T00:51:54;11.90;99.90
69999;DHT22;57339;52.156;5.372;2024-02-16T00:54:25;11.90;99.90
69999;DHT22;57339;52.156;5.372;2024-02-16T00:56:52;11.90;99.90
69999;DHT22;57339;52.156;5.372;2024-02-16T00:59:19;11.80;99.90
69999;DHT22;57339;52.156;5.372;2024-02-16T01:01:50;11.80;99.90
69999;DHT22;57339;52.156;5.372;2024-02-16T01:04:17;11.80;99.90
69999;DHT22;57339;52.156;5.372;2024-02-16T01:06:48;11.80;99.90
69999;DHT22;57339;52.156;5.372;2024-02-16T01:09:17;11.80;99.90
69999;DHT22;57339;52.156;5.372;2024-02-16T01:11:44;11.70;99.90
69999;DHT22;57339;52.156;5.372;2024-02-16T01:14:11;11.70;99.90
69999;DHT22;57339;52.156;5.372;2024-02-16T01:16:38;11.70;99.90
69999;DHT22;57339;52.156;5.372;2024-02-16T01:19:05;11.70;99.90
69999;DHT22;57339;52.156;5.372;2024-02-16T01:21:33;11.70;99.90
69999;DHT22;57339;52.156;5.372;2024-02-16T01:24:01;11.70;99.90
69999;DHT22;57339;52.156;5.372;2024-02-16T01:26:28;11.70;99.90
69999;DHT22;57339;52.156;5.372;2024-02-16T01:28:56;11.70;99.90
69999;DHT22;57339;52.156;5.372;2024-02-16T01:31:24;11.70;99.90
69999;DHT22;57339;52.156;5.372;2024-02-16T01:33:51;11.70;99.90
69999;DHT22;57339;52.156;5.372;2024-02-16T01:36:19;11.70;99.90
69999;DHT22;57339;52.156;5.372;2024-02-16T01:38:47;11.70;99.90
69999;DHT22;57339;52.156;5.372;2024-02-16T01:41:14;11.70;99.90
69999;DHT22;57339;52.156;5.372;2024-02-16T01:43:41;11.70;99.90
69999;DHT22;57339;52.156;5.372;2024-02-16T01:46:11;11.70;99.90
69999;DHT22;57339;52.156;5.372;2024-02-16T01:48:38;11.70;99.90
69999;DHT22;57339;52.156;5.372;2024-02-16T01:51:07;11.70;99.90
69999;DHT22;57339;52.156;5.372;2024-02-16T01:53:36;11.60;99.90
69999;DHT22;57339;52.156;5.372;2024-02-16T01:56:03;11.60;99.90
69999;DHT22;57339;52.156;5.372;2024-02-16T01:58:30;11.60;99.90
69999;DHT22;57339;52.156;5.372;2024-02-16T02:00:58;11.60;99.90
69999;DHT22;57339;52.156;5.372;2024-02-16T02:03:25;11.60;99.90
69999;DHT22;57339;52.156;5.372;2024-02-16T02:05:52;11.60;99.90
69999;DHT22;57339;52.156;5.372;2024-02-16T02:08:19;11.50;99.90
69999;DHT22;57339;52.156;5.372;2024-02-16T02:10:46;11.60;99.90
69999;DHT22;57339;52.156;5.372;2024-02-16T02:13:14;11.60;99.90
69999;DHT22;57339;52.156;5.372;2024-02-16T02:15:41;11.60;99.90
69999;DHT22;57339;52.156;5.372;2024-02-16T02:18:08;11.70;99.90
69999;DHT22;57339;52.156;5.372;2024-02-16T02:20:35;11.60;99.90
69999;DHT22;57339;52.156;5.372;2024-02-16T02:23:03;11.60;99.90
69999;DHT22;57339;52.156;5.372;2024-02-16T02:25:30;11.60;99.90
69999;DHT22;57339;52.156;5.372;2024-02-16T02:27:57;11.60;99.90
69999;DHT22;57339;52.156;5.372;2024-02-16T02:30:24;11.60;99.90
69999;DHT22;57339;52.156;5.372;2024-02-16T02:32:51;11.60;99.90
69999;DHT22;57339;52.156;5.372;2024-02-16T02:35:18;11.60;99.90
69999;DHT22;57339;52.156;5.372;2024-02-16T02:37:45;11.50;99.90
69999;DHT22;57339;52.156;5.372;2024-02-16T02:40:13;11.50;99.90
69999;DHT22;57339;52.156;5.372;2024-02-16T02:42:39;11.50;99.90
69999;DHT22;57339;52.156;5.372;2024-02-16T02:45:07;11.50;99.90
69999;DHT22;57339;52.156;5.372;2024-02-16T02:47:34;11.50;99.90
69999;DHT22;57339;52.156;5.372;2024-02-16T02:50:01;11.50;99.90
69999;DHT22;57339;52.156;5.372;2024-02-16T02:52:29;11.50;99.90
69999;DHT22;57339;52.156;5.372;2024-02-16T02:54:56;11.50;99.90
69999;DHT22;57339;52.156;5.372;2024-02-16T02:57:22;11.50;99.90
69999;DHT22;57339;52.156;5.372;2024-02-16T02:59:49;11.50;99.90
69999;DHT22;57339;52.156;5.372;2024-02-16T03:02:17;11.50;99.90
69999;DHT22;57339;52.156;5.372;2024-02-16T03:04:44;11.50;99.90
69999;DHT22;57339;52.156;5.372;2024-02-16T03:07:11;11.50;99.90
69999;DHT22;57339;52.156;5.372;2024-02-16T03:09:38;11.50;99.90
69999;DHT22;57339;52.156;5.372;2024-02-16T03:12:05;11.50;99.90
69999;DHT22;57339;52.156;5.372;2024-02-16T03:14:32;11.50;99.90
69999;DHT22;57339;52.156;5.372;2024-02-16T03:16:59;11.50;99.90
69999;DHT22;57339;52.156;5.372;2024-02-16T03:19:26;11.50;99.90
69999;DHT22;57339;52.156;5.372;2024-02-16T03:21:53;11.50;99.90
69999;DHT22;57339;52.156;5.372;2024-02-16T03:24:20;11.50;99.90
69999;DHT22;57339;52.156;5.372;2024-02-16T03:26:48;11.40;99.90
69999;DHT22;57339;52.156;5.372;2024-02-16T03:29:15;11.40;99.90
69999;DHT22;57339;52.156;5.372;2024-02-16T03:31:42;11.40;99.90
69999;DHT22;57339;52.156;5.372;2024-02-16T03:34:09;11.40;99.90
69999;DHT22;57339;52.156;5.372;2024-02-16T03:36:36;11.40;99.90
69999;DHT22;57339;52.156;5.372;2024-02-16T03:39:03;11.40;99.90
69999;DHT22;57339;52.156;5.372;2024-02-16T03:41:30;11.30;99.90
69999;DHT22;57339;52.156;5.372;2024-02-16T03:43:58;11.30;99.90
69999;DHT22;57339;52.156;5.372;2024-02-16T03:46:25;11.30;99.90
69999;DHT22;57339;52.156;5.372;2024-02-16T03:48:53;11.30;99.90
69999;DHT22;57339;52.156;5.372;2024-02-16T03:51:20;11.30;99.90
69999;DHT22;57339;52.156;5.372;2024-02-16T03:53:49;11.30;99.90
69999;DHT22;57339;52.156;5.372;2024-02-16T03:56:19;11.30;99.90
69999;DHT22;57339;52.156;5.372;2024-02-16T03:58:47;11.30;99.90
69999;DHT22;57339;52.156;5.372;2024-02-16T04:01:14;11.20;99.90
69999;DHT22;57339;52.156;5.372;2024-02-16T04:03:41;11.20;99.90
69999;DHT22;57339;52.156;5.372;2024-02-16T04:06:08;11.20;99.90
69999;DHT22;57339;52.156;5.372;2024-02-16T04:08:35;11.20;99.90
69999;DHT22;57339;52.156;5.372;2024-02-16T04:11:02;11.20;99.90
69999;DHT22;57339;52.156;5.372;2024-02-16T04:13:30;11.20;99.90
69999;DHT22;57339;52.156;5.372;2024-02-16T04:15:57;11.30;99.90
69999;DHT22;57339;52.156;5.372;2024-02-16T04:18:23;11.30;99.90
69999;DHT22;57339;52.156;5.372;2024-02-16T04:20:51;11.30;99.90
69999;DHT22;57339;52.156;5.372;2024-02-16T04:23:18;11.30;99.90
69999;DHT22;57339;52.156;5.372;2024-02-16T04:25:48;11.30;99.90
69999;DHT22;57339;52.156;5.372;2024-02-16T04:28:15;11.20;99.90
69999;DHT22;57339;52.156;5.372;2024-02-16T04:30:42;11.20;99.90
69999;DHT22;57339;52.156;5.372;2024-02-16T04:33:09;11.20;99.90
69999;DHT22;57339;52.156;5.372;2024-02-16T04:35:36;11.20;99.90
69999;DHT22;57339;52.156;5.372;2024-02-16T04:38:03;11.20;99.90
69999;DHT22;57339;52.156;5.372;2024-02-16T04:40:36;11.20;99.90
69999;DHT22;57339;52.156;5.372;2024-02-16T04:43:04;11.20;99.90
69999;DHT22;57339;52.156;5.372;2024-02-16T04:45:31;11.20;99.90
69999;DHT22;57339;52.156;5.372;2024-02-16T04:48:03;11.20;99.90
69999;DHT22;57339;52.156;5.372;2024-02-16T04:50:32;11.20;99.90
69999;DHT22;57339;52.156;5.372;2024-02-16T04:53:00;11.20;99.90
69999;DHT22;57339;52.156;5.372;2024-02-16T04:55:28;11.20;99.90
69999;DHT22;57339;52.156;5.372;2024-02-16T04:57:58;11.20;99.90
69999;DHT22;57339;52.156;5.372;2024-02-16T05:00:25;11.20;99.90
69999;DHT22;57339;52.156;5.372;2024-02-16T05:02:55;11.30;99.90
69999;DHT22;57339;52.156;5.372;2024-02-16T05:05:23;11.30;99.90
69999;DHT22;57339;52.156;5.372;2024-02-16T05:07:50;11.30;99.90
69999;DHT22;57339;52.156;5.372;2024-02-16T05:10:17;11.30;99.90
69999;DHT22;57339;52.156;5.372;2024-02-16T05:12:44;11.30;99.90
69999;DHT22;57339;52.156;5.372;2024-02-16T05:15:11;11.30;99.90
69999;DHT22;57339;52.156;5.372;2024-02-16T05:17:38;11.30;99.90
69999;DHT22;57339;52.156;5.372;2024-02-16T05:20:12;11.30;99.90
69999;DHT22;57339;52.156;5.372;2024-02-16T05:22:39;11.30;99.90
69999;DHT22;57339;52.156;5.372;2024-02-16T05:25:06;11.30;99.90
69999;DHT22;57339;52.156;5.372;2024-02-16T05:27:33;11.30;99.90
69999;DHT22;57339;52.156;5.372;2024-02-16T05:30:01;11.30;99.90
69999;DHT22;57339;52.156;5.372;2024-02-16T05:32:28;11.30;99.90
69999;DHT22;57339;52.156;5.372;2024-02-16T05:34:55;11.30;99.90
69999;DHT22;57339;52.156;5.372;2024-02-16T05:37:25;11.30;99.90
69999;DHT22;57339;52.156;5.372;2024-02-16T05:39:53;11.30;99.90
69999;DHT22;57339;52.156;5.372;2024-02-16T05:42:21;11.30;99.90
69999;DHT22;57339;52.156;5.372;2024-02-16T05:44:50;11.40;99.90
69999;DHT22;57339;52.156;5.372;2024-02-16T05:47:17;11.40;99.90
69999;DHT22;57339;52.156;5.372;2024-02-16T05:49:45;11.40;99.90
69999;DHT22;57339;52.156;5.372;2024-02-16T05:52:12;11.40;99.90
69999;DHT22;57339;52.156;5.372;2024-02-16T05:54:40;11.40;99.90
69999;DHT22;57339;52.156;5.372;2024-02-16T05:57:08;11.50;99.90
69999;DHT22;57339;52.156;5.372;2024-02-16T05:59:35;11.50;99.90
69999;DHT22;57339;52.156;5.372;2024-02-16T06:02:02;11.50;99.90
69999;DHT22;57339;52.156;5.372;2024-02-16T06:04:29;11.60;99.90
69999;DHT22;57339;52.156;5.372;2024-02-16T06:06:56;11.60;99.90
69999;DHT22;57339;52.156;5.372;2024-02-16T06:09:26;11.60;99.90
69999;DHT22;57339;52.156;5.372;2024-02-16T06:11:54;11.60;99.90
69999;DHT22;57339;52.156;5.372;2024-02-16T06:14:21;11.60;99.90
69999;DHT22;57339;52.156;5.372;2024-02-16T06:16:48;11.70;99.90
69999;DHT22;57339;52.156;5.372;2024-02-16T06:19:15;11.70;99.90
69999;DHT22;57339;52.156;5.372;2024-02-16T06:21:42;11.70;99.90
69999;DHT22;57339;52.156;5.372;2024-02-16T06:24:09;11.80;99.90
69999;DHT22;57339;52.156;5.372;2024-02-16T06:26:36;11.80;99.90
69999;DHT22;57339;52.156;5.372;2024-02-16T06:29:03;11.80;99.90
69999;DHT22;57339;52.156;5.372;2024-02-16T06:31:30;11.90;99.90
69999;DHT22;57339;52.156;5.372;2024-02-16T06:33:57;11.90;99.90
69999;DHT22;57339;52.156;5.372;2024-02-16T06:36:25;11.90;99.90
69999;DHT22;57339;52.156;5.372;2024-02-16T06:38:52;12.00;99.90
69999;DHT22;57339;52.156;5.372;2024-02-16T06:41:21;12.00;99.90
69999;DHT22;57339;52.156;5.372;2024-02-16T06:43:51;12.00;99.90
69999;DHT22;57339;52.156;5.372;2024-02-16T06:46:20;12.10;99.90
69999;DHT22;57339;52.156;5.372;2024-02-16T06:48:47;12.10;99.90
69999;DHT22;57339;52.156;5.372;2024-02-16T06:51:14;12.10;99.90
69999;DHT22;57339;52.156;5.372;2024-02-16T06:53:41;12.20;99.90
69999;DHT22;57339;52.156;5.372;2024-02-16T06:56:09;12.20;99.90
69999;DHT22;57339;52.156;5.372;2024-02-16T06:58:36;12.20;99.90
69999;DHT22;57339;52.156;5.372;2024-02-16T07:01:03;12.20;99.90
69999;DHT22;57339;52.156;5.372;2024-02-16T07:03:30;12.20;99.90
69999;DHT22;57339;52.156;5.372;2024-02-16T07:05:58;12.20;99.90
69999;DHT22;57339;52.156;5.372;2024-02-16T07:08:27;12.20;99.90
69999;DHT22;57339;52.156;5.372;2024-02-16T07:10:55;12.20;99.90
69999;DHT22;57339;52.156;5.372;2024-02-16T07:13:25;12.20;99.90
69999;DHT22;57339;52.156;5.372;2024-02-16T07:15:52;12.20;99.90
69999;DHT22;57339;52.156;5.372;2024-02-16T07:18:19;12.20;99.90
69999;DHT22;57339;52.156;5.372;2024-02-16T07:20:46;12.20;99.90
69999;DHT22;57339;52.156;5.372;2024-02-16T07:23:17;12.20;99.90
69999;DHT22;57339;52.156;5.372;2024-02-16T07:25:44;12.20;99.90
69999;DHT22;57339;52.156;5.372;2024-02-16T07:28:11;12.20;99.90
69999;DHT22;57339;52.156;5.372;2024-02-16T07:30:38;12.20;99.90
69999;DHT22;57339;52.156;5.372;2024-02-16T07:33:09;12.30;99.90
69999;DHT22;57339;52.156;5.372;2024-02-16T07:35:37;12.30;99.90
69999;DHT22;57339;52.156;5.372;2024-02-16T07:38:04;12.30;99.90
69999;DHT22;57339;52.156;5.372;2024-02-16T07:40:31;12.40;99.90
69999;DHT22;57339;52.156;5.372;2024-02-16T07:42:58;12.40;99.90
69999;DHT22;57339;52.156;5.372;2024-02-16T07:45:26;12.40;99.90
69999;DHT22;57339;52.156;5.372;2024-02-16T07:47:53;12.40;99.90
69999;DHT22;57339;52.156;5.372;2024-02-16T07:50:21;12.50;99.90
69999;DHT22;57339;52.156;5.372;2024-02-16T07:52:49;12.40;99.90
69999;DHT22;57339;52.156;5.372;2024-02-16T07:55:17;12.50;99.90
69999;DHT22;57339;52.156;5.372;2024-02-16T07:57:44;12.60;99.90
69999;DHT22;57339;52.156;5.372;2024-02-16T08:00:12;12.60;99.90
69999;DHT22;57339;52.156;5.372;2024-02-16T08:02:39;12.60;99.90
69999;DHT22;57339;52.156;5.372;2024-02-16T08:05:06;12.70;99.90
69999;DHT22;57339;52.156;5.372;2024-02-16T08:07:33;12.70;99.90
69999;DHT22;57339;52.156;5.372;2024-02-16T08:10:00;12.80;99.90
69999;DHT22;57339;52.156;5.372;2024-02-16T08:12:27;12.80;99.90
69999;DHT22;57339;52.156;5.372;2024-02-16T08:14:57;12.80;99.90
69999;DHT22;57339;52.156;5.372;2024-02-16T08:17:29;12.90;99.90
69999;DHT22;57339;52.156;5.372;2024-02-16T08:19:57;13.00;99.90
69999;DHT22;57339;52.156;5.372;2024-02-16T08:22:24;13.00;99.90
69999;DHT22;57339;52.156;5.372;2024-02-16T08:24:52;13.10;99.90
69999;DHT22;57339;52.156;5.372;2024-02-16T08:27:19;13.20;99.90
69999;DHT22;57339;52.156;5.372;2024-02-16T08:29:46;13.20;99.90
69999;DHT22;57339;52.156;5.372;2024-02-16T08:32:13;13.30;99.90
69999;DHT22;57339;52.156;5.372;2024-02-16T08:34:40;13.40;99.90
69999;DHT22;57339;52.156;5.372;2024-02-16T08:37:07;13.40;99.90
69999;DHT22;57339;52.156;5.372;2024-02-16T08:39:34;13.50;99.90
69999;DHT22;57339;52.156;5.372;2024-02-16T08:42:04;13.50;99.90
69999;DHT22;57339;52.156;5.372;2024-02-16T08:44:31;13.60;99.90
69999;DHT22;57339;52.156;5.372;2024-02-16T08:46:58;13.70;99.90
69999;DHT22;57339;52.156;5.372;2024-02-16T08:49:25;13.80;99.90
69999;DHT22;57339;52.156;5.372;2024-02-16T08:51:52;13.90;99.90
69999;DHT22;57339;52.156;5.372;2024-02-16T08:54:19;14.00;99.90
69999;DHT22;57339;52.156;5.372;2024-02-16T08:56:46;14.10;99.90
69999;DHT22;57339;52.156;5.372;2024-02-16T08:59:13;14.20;99.90
69999;DHT22;57339;52.156;5.372;2024-02-16T09:01:42;14.30;99.90
69999;DHT22;57339;52.156;5.372;2024-02-16T09:04:09;14.30;99.90
69999;DHT22;57339;52.156;5.372;2024-02-16T09:06:36;14.40;99.90
69999;DHT22;57339;52.156;5.372;2024-02-16T09:09:08;14.40;99.90
69999;DHT22;57339;52.156;5.372;2024-02-16T09:11:41;14.40;99.90
69999;DHT22;57339;52.156;5.372;2024-02-16T09:14:08;14.30;99.90
69999;DHT22;57339;52.156;5.372;2024-02-16T09:16:34;14.20;99.90
69999;DHT22;57339;52.156;5.372;2024-02-16T09:19:02;14.20;99.90
69999;DHT22;57339;52.156;5.372;2024-02-16T09:21:29;14.10;99.90
69999;DHT22;57339;52.156;5.372;2024-02-16T09:23:56;14.00;99.90
69999;DHT22;57339;52.156;5.372;2024-02-16T09:26:23;13.90;99.90
69999;DHT22;57339;52.156;5.372;2024-02-16T09:28:49;13.80;99.90
69999;DHT22;57339;52.156;5.372;2024-02-16T09:31:16;13.70;99.90
69999;DHT22;57339;52.156;5.372;2024-02-16T09:33:43;13.60;99.90
69999;DHT22;57339;52.156;5.372;2024-02-16T09:36:10;13.60;99.90
69999;DHT22;57339;52.156;5.372;2024-02-16T09:38:37;13.60;99.90
69999;DHT22;57339;52.156;5.372;2024-02-16T09:41:04;13.60;99.90
69999;DHT22;57339;52.156;5.372;2024-02-16T09:43:31;13.60;99.90
69999;DHT22;57339;52.156;5.372;2024-02-16T09:45:59;13.60;99.90
69999;DHT22;57339;52.156;5.372;2024-02-16T09:48:27;13.60;99.90
69999;DHT22;57339;52.156;5.372;2024-02-16T09:50:56;13.70;99.90
69999;DHT22;57339;52.156;5.372;2024-02-16T09:53:25;13.80;99.90
69999;DHT22;57339;52.156;5.372;2024-02-16T09:55:53;13.80;99.90
69999;DHT22;57339;52.156;5.372;2024-02-16T09:58:21;13.80;99.90
69999;DHT22;57339;52.156;5.372;2024-02-16T10:00:52;14.00;99.90
69999;DHT22;57339;52.156;5.372;2024-02-16T10:03:27;13.90;99.90
69999;DHT22;57339;52.156;5.372;2024-02-16T10:06:05;13.90;99.90
69999;DHT22;57339;52.156;5.372;2024-02-16T10:08:33;13.80;99.90
69999;DHT22;57339;52.156;5.372;2024-02-16T10:11:09;13.80;99.90
69999;DHT22;57339;52.156;5.372;2024-02-16T10:13:36;13.80;99.90
69999;DHT22;57339;52.156;5.372;2024-02-16T10:16:11;13.80;99.90
69999;DHT22;57339;52.156;5.372;2024-02-16T10:18:38;13.80;99.90
69999;DHT22;57339;52.156;5.372;2024-02-16T10:21:05;13.70;99.90
69999;DHT22;57339;52.156;5.372;2024-02-16T10:23:32;13.70;99.90
69999;DHT22;57339;52.156;5.372;2024-02-16T10:26:03;13.70;99.90
69999;DHT22;57339;52.156;5.372;2024-02-16T10:28:30;13.60;99.90
69999;DHT22;57339;52.156;5.372;2024-02-16T10:30:59;13.50;99.90
69999;DHT22;57339;52.156;5.372;2024-02-16T10:33:29;13.50;99.90
69999;DHT22;57339;52.156;5.372;2024-02-16T10:35:58;13.40;99.90
69999;DHT22;57339;52.156;5.372;2024-02-16T10:38:27;13.40;99.90
69999;DHT22;57339;52.156;5.372;2024-02-16T10:40:57;13.30;99.90
69999;DHT22;57339;52.156;5.372;2024-02-16T10:43:24;13.30;99.90
69999;DHT22;57339;52.156;5.372;2024-02-16T10:45:52;13.30;99.90
69999;DHT22;57339;52.156;5.372;2024-02-16T10:48:20;13.20;99.90
69999;DHT22;57339;52.156;5.372;2024-02-16T10:50:48;13.10;99.90
69999;DHT22;57339;52.156;5.372;2024-02-16T10:53:19;13.10;99.90
69999;DHT22;57339;52.156;5.372;2024-02-16T10:55:48;13.00;99.90
69999;DHT22;57339;52.156;5.372;2024-02-16T10:58:20;13.00;99.90
69999;DHT22;57339;52.156;5.372;2024-02-16T11:00:54;13.00;99.90
69999;DHT22;57339;52.156;5.372;2024-02-16T11:03:23;12.90;99.90
69999;DHT22;57339;52.156;5.372;2024-02-16T11:05:51;12.90;99.90
69999;DHT22;57339;52.156;5.372;2024-02-16T11:08:24;12.90;99.90
69999;DHT22;57339;52.156;5.372;2024-02-16T11:11:00;12.90;99.90
69999;DHT22;57339;52.156;5.372;2024-02-16T11:13:32;12.80;99.90
69999;DHT22;57339;52.156;5.372;2024-02-16T11:16:03;12.70;99.90
69999;DHT22;57339;52.156;5.372;2024-02-16T11:18:31;12.70;99.90
69999;DHT22;57339;52.156;5.372;2024-02-16T11:21:02;12.70;99.90
69999;DHT22;57339;52.156;5.372;2024-02-16T11:23:31;12.70;99.90
69999;DHT22;57339;52.156;5.372;2024-02-16T11:26:02;12.70;99.90
69999;DHT22;57339;52.156;5.372;2024-02-16T11:28:34;12.80;99.90
69999;DHT22;57339;52.156;5.372;2024-02-16T11:31:01;12.80;99.90
69999;DHT22;57339;52.156;5.372;2024-02-16T11:33:29;12.80;99.90
69999;DHT22;57339;52.156;5.372;2024-02-16T11:35:58;12.80;99.90
69999;DHT22;57339;52.156;5.372;2024-02-16T11:38:26;12.80;99.90
69999;DHT22;57339;52.156;5.372;2024-02-16T11:43:22;12.80;99.90
69999;DHT22;57339;52.156;5.372;2024-02-16T11:45:49;12.80;99.90
69999;DHT22;57339;52.156;5.372;2024-02-16T11:48:23;12.80;99.90
69999;DHT22;57339;52.156;5.372;2024-02-16T11:51:00;12.90;99.90
69999;DHT22;57339;52.156;5.372;2024-02-16T11:53:28;12.80;99.90
69999;DHT22;57339;52.156;5.372;2024-02-16T11:55:55;12.90;99.90
69999;DHT22;57339;52.156;5.372;2024-02-16T11:58:23;12.80;99.90
69999;DHT22;57339;52.156;5.372;2024-02-16T12:00:51;12.70;99.90
69999;DHT22;57339;52.156;5.372;2024-02-16T12:03:20;12.70;99.90
69999;DHT22;57339;52.156;5.372;2024-02-16T12:05:59;12.70;99.90
69999;DHT22;57339;52.156;5.372;2024-02-16T12:08:32;12.70;99.90
69999;DHT22;57339;52.156;5.372;2024-02-16T12:11:00;12.70;99.90
69999;DHT22;57339;52.156;5.372;2024-02-16T12:13:28;12.70;99.90
69999;DHT22;57339;52.156;5.372;2024-02-16T12:15:55;12.70;99.90
69999;DHT22;57339;52.156;5.372;2024-02-16T12:18:25;12.70;99.90
69999;DHT22;57339;52.156;5.372;2024-02-16T12:21:03;12.60;99.90
69999;DHT22;57339;52.156;5.372;2024-02-16T12:23:31;12.50;99.90
69999;DHT22;57339;52.156;5.372;2024-02-16T12:25:59;12.50;99.90
69999;DHT22;57339;52.156;5.372;2024-02-16T12:28:28;12.50;99.90
69999;DHT22;57339;52.156;5.372;2024-02-16T12:30:55;12.50;99.90
69999;DHT22;57339;52.156;5.372;2024-02-16T12:33:26;12.40;99.90
69999;DHT22;57339;52.156;5.372;2024-02-16T12:35:53;12.30;99.90
69999;DHT22;57339;52.156;5.372;2024-02-16T12:38:20;12.30;99.90
69999;DHT22;57339;52.156;5.372;2024-02-16T12:40:48;12.30;99.90
69999;DHT22;57339;52.156;5.372;2024-02-16T12:43:15;12.20;99.90
69999;DHT22;57339;52.156;5.372;2024-02-16T12:45:42;12.20;99.90
69999;DHT22;57339;52.156;5.372;2024-02-16T12:48:09;12.20;99.90
69999;DHT22;57339;52.156;5.372;2024-02-16T12:50:36;12.20;99.90
69999;DHT22;57339;52.156;5.372;2024-02-16T12:53:04;12.20;99.90
69999;DHT22;57339;52.156;5.372;2024-02-16T12:55:31;12.30;99.90
69999;DHT22;57339;52.156;5.372;2024-02-16T12:57:59;12.40;99.90
69999;DHT22;57339;52.156;5.372;2024-02-16T13:00:26;12.50;99.90
69999;DHT22;57339;52.156;5.372;2024-02-16T13:02:54;12.50;99.90
69999;DHT22;57339;52.156;5.372;2024-02-16T13:05:21;12.50;99.90
69999;DHT22;57339;52.156;5.372;2024-02-16T13:07:47;12.50;99.90
69999;DHT22;57339;52.156;5.372;2024-02-16T13:10:15;12.60;99.90
69999;DHT22;57339;52.156;5.372;2024-02-16T13:12:42;12.70;99.90
69999;DHT22;57339;52.156;5.372;2024-02-16T13:15:09;12.80;99.90
69999;DHT22;57339;52.156;5.372;2024-02-16T13:17:54;12.80;99.90
69999;DHT22;57339;52.156;5.372;2024-02-16T13:20:22;12.80;99.90
69999;DHT22;57339;52.156;5.372;2024-02-16T13:22:49;12.70;99.90
69999;DHT22;57339;52.156;5.372;2024-02-16T13:25:16;12.80;99.90
69999;DHT22;57339;52.156;5.372;2024-02-16T13:27:43;12.80;99.90
69999;DHT22;57339;52.156;5.372;2024-02-16T13:30:10;12.60;99.90
69999;DHT22;57339;52.156;5.372;2024-02-16T13:32:37;12.60;99.90
69999;DHT22;57339;52.156;5.372;2024-02-16T13:35:05;12.60;99.90
69999;DHT22;57339;52.156;5.372;2024-02-16T13:37:32;12.70;99.90
69999;DHT22;57339;52.156;5.372;2024-02-16T13:39:59;12.70;99.90
69999;DHT22;57339;52.156;5.372;2024-02-16T13:42:26;12.70;99.90
69999;DHT22;57339;52.156;5.372;2024-02-16T13:44:54;12.70;99.90
69999;DHT22;57339;52.156;5.372;2024-02-16T13:47:22;12.60;99.90
69999;DHT22;57339;52.156;5.372;2024-02-16T13:49:50;12.60;99.90
69999;DHT22;57339;52.156;5.372;2024-02-16T13:52:17;12.60;99.90
69999;DHT22;57339;52.156;5.372;2024-02-16T13:54:45;12.50;99.90
69999;DHT22;57339;52.156;5.372;2024-02-16T13:57:12;12.40;99.90
69999;DHT22;57339;52.156;5.372;2024-02-16T13:59:38;12.40;99.90
69999;DHT22;57339;52.156;5.372;2024-02-16T14:02:06;12.50;99.90
69999;DHT22;57339;52.156;5.372;2024-02-16T14:04:33;12.50;99.90
69999;DHT22;57339;52.156;5.372;2024-02-16T14:07:00;12.50;99.90
69999;DHT22;57339;52.156;5.372;2024-02-16T14:09:27;12.40;99.90
69999;DHT22;57339;52.156;5.372;2024-02-16T14:12:00;12.40;99.90
69999;DHT22;57339;52.156;5.372;2024-02-16T14:14:27;12.40;99.90
69999;DHT22;57339;52.156;5.372;2024-02-16T14:17:04;12.30;99.90
69999;DHT22;57339;52.156;5.372;2024-02-16T14:19:31;12.30;99.90
69999;DHT22;57339;52.156;5.372;2024-02-16T14:21:59;12.30;99.90
69999;DHT22;57339;52.156;5.372;2024-02-16T14:24:26;12.30;99.90
69999;DHT22;57339;52.156;5.372;2024-02-16T14:26:53;12.40;99.90
69999;DHT22;57339;52.156;5.372;2024-02-16T14:29:21;12.40;99.90
69999;DHT22;57339;52.156;5.372;2024-02-16T14:31:48;12.40;99.90
69999;DHT22;57339;52.156;5.372;2024-02-16T14:34:15;12.40;99.90
69999;DHT22;57339;52.156;5.372;2024-02-16T14:36:42;12.40;99.90
69999;DHT22;57339;52.156;5.372;2024-02-16T14:39:10;12.40;99.90
69999;DHT22;57339;52.156;5.372;2024-02-16T14:41:37;12.40;99.90
69999;DHT22;57339;52.156;5.372;2024-02-16T14:44:04;12.50;99.90
69999;DHT22;57339;52.156;5.372;2024-02-16T14:46:31;12.50;99.90
69999;DHT22;57339;52.156;5.372;2024-02-16T14:48:58;12.50;99.90
69999;DHT22;57339;52.156;5.372;2024-02-16T14:51:25;12.50;99.90
69999;DHT22;57339;52.156;5.372;2024-02-16T14:53:52;12.60;99.90
69999;DHT22;57339;52.156;5.372;2024-02-16T14:56:19;12.50;99.90
69999;DHT22;57339;52.156;5.372;2024-02-16T14:58:47;12.50;99.90
69999;DHT22;57339;52.156;5.372;2024-02-16T15:01:13;12.50;99.90
69999;DHT22;57339;52.156;5.372;2024-02-16T15:03:41;12.60;99.90
69999;DHT22;57339;52.156;5.372;2024-02-16T15:06:08;12.60;99.90
69999;DHT22;57339;52.156;5.372;2024-02-16T15:08:35;12.60;99.90
69999;DHT22;57339;52.156;5.372;2024-02-16T15:11:02;12.60;99.90
69999;DHT22;57339;52.156;5.372;2024-02-16T15:13:29;12.60;99.90
69999;DHT22;57339;52.156;5.372;2024-02-16T15:15:56;12.60;99.90
69999;DHT22;57339;52.156;5.372;2024-02-16T15:18:23;12.60;99.90
69999;DHT22;57339;52.156;5.372;2024-02-16T15:20:51;12.60;99.90
69999;DHT22;57339;52.156;5.372;2024-02-16T15:23:22;12.60;99.90
69999;DHT22;57339;52.156;5.372;2024-02-16T15:25:49;12.60;99.90
69999;DHT22;57339;52.156;5.372;2024-02-16T15:28:16;12.60;99.90
69999;DHT22;57339;52.156;5.372;2024-02-16T15:30:43;12.60;99.90
69999;DHT22;57339;52.156;5.372;2024-02-16T15:33:10;12.60;99.90
69999;DHT22;57339;52.156;5.372;2024-02-16T15:35:37;12.60;99.90